createdAt,value
2023-03-31T00:02:22.805Z,10.02
2023-03-31T00:05:11.208Z,8.27
2023-03-31T00:08:04.017Z,6.65
2023-03-31T00:10:49.777Z,6.10
2023-03-31T00:13:36.657Z,5.00
2023-03-31T00:16:22.030Z,4.75
2023-03-31T00:19:09.848Z,5.93
2023-03-31T00:21:55.247Z,5.75
2023-03-31T00:24:40.745Z,6.13
2023-03-31T00:27:28.288Z,8.00
2023-03-31T00:30:14.571Z,7.05
2023-03-31T00:33:00.631Z,6.32
2023-03-31T00:35:46.337Z,7.68
2023-03-31T00:38:33.233Z,9.18
2023-03-31T00:41:19.063Z,8.32
2023-03-31T00:44:14.651Z,4.97
2023-03-31T00:47:21.138Z,8.95
2023-03-31T00:50:16.069Z,7.30
2023-03-31T00:53:08.456Z,7.57
2023-03-31T00:55:59.069Z,8.85
2023-03-31T00:58:45.909Z,9.90
2023-03-31T01:01:32.610Z,9.10
2023-03-31T01:04:22.620Z,8.60
2023-03-31T01:07:30.431Z,8.27
2023-03-31T01:10:15.891Z,10.20
2023-03-31T01:13:01.582Z,8.75
2023-03-31T01:15:49.049Z,7.28
2023-03-31T01:18:35.291Z,7.55
2023-03-31T01:21:26.004Z,8.70
2023-03-31T01:24:35.961Z,10.10
2023-03-31T01:27:46.077Z,9.75
2023-03-31T01:31:05.492Z,7.18
2023-03-31T01:34:16.025Z,5.85
2023-03-31T01:37:21.208Z,6.40
2023-03-31T01:40:37.794Z,6.75
2023-03-31T01:44:04.715Z,5.38
2023-03-31T01:47:08.480Z,5.63
2023-03-31T01:50:08.614Z,5.10
2023-03-31T01:53:15.515Z,6.25
2023-03-31T01:56:18.148Z,10.98
2023-03-31T01:59:14.434Z,6.75
2023-03-31T02:02:07.375Z,4.18
2023-03-31T02:05:00.683Z,5.40
2023-03-31T02:08:06.229Z,7.35
2023-03-31T02:10:54.046Z,5.20
2023-03-31T02:13:46.941Z,7.65
2023-03-31T02:16:58.230Z,5.65
2023-03-31T02:19:47.237Z,5.63
2023-03-31T02:22:37.632Z,7.85
2023-03-31T02:25:32.025Z,8.38
2023-03-31T02:28:25.017Z,7.68
2023-03-31T02:31:27.152Z,4.95
2023-03-31T02:34:12.702Z,5.32
2023-03-31T02:36:58.629Z,5.57
2023-03-31T02:39:47.350Z,7.15
2023-03-31T02:42:33.140Z,6.78
2023-03-31T02:45:40.511Z,6.53
2023-03-31T02:48:29.678Z,5.85
2023-03-31T02:51:27.372Z,7.22
2023-03-31T02:54:28.134Z,5.63
2023-03-31T02:57:53.116Z,7.97
2023-03-31T03:01:16.647Z,8.20
2023-03-31T03:04:35.371Z,6.97
2023-03-31T03:07:42.798Z,5.45
2023-03-31T03:10:44.853Z,5.90
2023-03-31T03:14:01.956Z,5.32
2023-03-31T03:16:53.360Z,6.35
2023-03-31T03:19:41.919Z,8.55
2023-03-31T03:22:28.068Z,9.60
2023-03-31T03:25:17.253Z,7.32
2023-03-31T03:28:02.815Z,6.47
2023-03-31T03:30:48.079Z,5.10
2023-03-31T03:33:33.734Z,8.40
2023-03-31T03:36:19.968Z,7.60
2023-03-31T03:39:07.736Z,10.85
2023-03-31T03:41:53.176Z,9.10
2023-03-31T03:44:38.528Z,11.50
2023-03-31T03:47:24.457Z,6.50
2023-03-31T03:50:12.490Z,7.00
2023-03-31T03:52:58.822Z,7.25
2023-03-31T03:55:45.217Z,9.15
2023-03-31T03:58:30.634Z,11.07
2023-03-31T04:01:16.251Z,6.93
2023-03-31T04:04:01.702Z,8.18
2023-03-31T04:06:47.337Z,8.25
2023-03-31T04:09:32.722Z,9.32
2023-03-31T04:12:18.055Z,9.13
2023-03-31T04:15:04.686Z,5.80
2023-03-31T04:17:51.101Z,7.18
2023-03-31T04:20:37.875Z,10.88
2023-03-31T04:23:23.503Z,11.65
2023-03-31T04:26:10.041Z,12.10
2023-03-31T04:28:58.596Z,9.10
2023-03-31T04:31:44.491Z,7.28
2023-03-31T04:34:36.226Z,9.70
2023-03-31T04:37:21.673Z,18.37
2023-03-31T04:40:08.108Z,9.73
2023-03-31T04:42:53.479Z,8.02
2023-03-31T04:45:39.069Z,7.32
2023-03-31T04:48:24.650Z,6.55
2023-03-31T04:51:11.550Z,5.03
2023-03-31T04:53:57.932Z,7.40
2023-03-31T04:56:43.466Z,10.82
2023-03-31T04:59:29.059Z,7.85
2023-03-31T05:02:16.192Z,7.80
2023-03-31T05:05:01.572Z,9.73
2023-03-31T05:07:46.742Z,7.18
2023-03-31T05:10:33.007Z,7.80
2023-03-31T05:13:18.339Z,8.82
2023-03-31T05:16:14.856Z,8.02
2023-03-31T05:19:00.637Z,7.68
2023-03-31T05:21:46.698Z,7.72
2023-03-31T05:24:31.970Z,8.98
2023-03-31T05:27:18.012Z,13.65
2023-03-31T05:30:04.750Z,7.63
2023-03-31T05:32:50.201Z,6.00
2023-03-31T05:35:35.706Z,6.72
2023-03-31T05:38:22.594Z,6.50
2023-03-31T05:41:09.549Z,7.65
2023-03-31T05:43:55.065Z,11.25
2023-03-31T05:46:41.385Z,16.33
2023-03-31T05:49:27.178Z,10.63
2023-03-31T05:52:12.878Z,10.25
2023-03-31T05:54:59.218Z,10.95
2023-03-31T05:57:44.585Z,17.15
2023-03-31T06:00:30.029Z,23.27
2023-03-31T06:03:15.716Z,18.05
2023-03-31T06:06:02.121Z,15.73
2023-03-31T06:08:48.407Z,12.50
2023-03-31T06:11:34.147Z,11.00
2023-03-31T06:14:19.502Z,9.32
2023-03-31T06:17:04.838Z,12.23
2023-03-31T06:19:50.183Z,8.70
2023-03-31T06:22:35.577Z,7.10
2023-03-31T06:25:21.820Z,7.50
2023-03-31T06:28:07.738Z,8.27
2023-03-31T06:31:04.065Z,5.75
2023-03-31T06:33:50.065Z,5.07
2023-03-31T06:36:36.300Z,6.43
2023-03-31T06:39:21.798Z,7.72
2023-03-31T06:42:07.374Z,5.65
2023-03-31T06:44:58.966Z,4.80
2023-03-31T06:47:44.625Z,4.57
2023-03-31T06:50:29.876Z,3.97
2023-03-31T06:53:15.657Z,6.75
2023-03-31T06:56:01.566Z,4.38
2023-03-31T06:58:48.160Z,5.32
2023-03-31T07:01:37.333Z,4.75
2023-03-31T07:04:23.061Z,4.57
2023-03-31T07:07:08.494Z,5.55
2023-03-31T07:09:56.311Z,6.50
2023-03-31T07:12:42.067Z,9.60
2023-03-31T07:15:28.668Z,6.57
2023-03-31T07:18:15.716Z,7.72
2023-03-31T07:21:01.522Z,8.70
2023-03-31T07:23:47.847Z,6.95
2023-03-31T07:26:33.765Z,11.63
2023-03-31T07:29:20.607Z,7.20
2023-03-31T07:32:06.719Z,7.63
2023-03-31T07:34:52.276Z,7.68
2023-03-31T07:37:39.403Z,7.03
2023-03-31T07:40:27.467Z,7.32
2023-03-31T07:43:13.458Z,11.77
2023-03-31T07:45:59.171Z,12.50
2023-03-31T07:48:46.651Z,13.02
2023-03-31T07:51:32.553Z,7.80
2023-03-31T07:54:18.393Z,9.18
2023-03-31T07:57:06.182Z,8.75
2023-03-31T07:59:52.393Z,9.90
2023-03-31T08:02:38.976Z,10.50
2023-03-31T08:05:24.812Z,10.07
2023-03-31T08:08:10.708Z,10.90
2023-03-31T08:10:56.497Z,10.05
2023-03-31T08:13:42.018Z,11.43
2023-03-31T08:16:27.548Z,10.02
2023-03-31T08:19:12.988Z,14.23
2023-03-31T08:21:58.483Z,12.23
2023-03-31T08:24:43.763Z,10.38
2023-03-31T08:27:32.477Z,14.85
2023-03-31T08:30:19.782Z,14.38
2023-03-31T08:33:05.250Z,11.38
2023-03-31T08:35:51.065Z,11.70
2023-03-31T08:38:39.113Z,12.02
2023-03-31T08:41:29.594Z,13.10
2023-03-31T08:44:22.591Z,14.23
2023-03-31T08:47:16.142Z,14.20
2023-03-31T08:50:07.783Z,11.43
2023-03-31T08:53:03.981Z,14.98
2023-03-31T08:55:52.347Z,11.43
2023-03-31T08:58:47.739Z,10.70
2023-03-31T09:01:56.835Z,13.90
2023-03-31T09:04:58.553Z,12.20
2023-03-31T09:08:22.893Z,13.15
2023-03-31T09:11:13.878Z,11.40
2023-03-31T09:14:10.517Z,15.13
2023-03-31T09:17:25.379Z,8.40
2023-03-31T09:20:21.150Z,8.52
2023-03-31T09:23:21.538Z,11.85
2023-03-31T09:26:23.026Z,10.27
2023-03-31T09:29:47.989Z,15.02
2023-03-31T09:32:33.923Z,11.63
2023-03-31T09:35:22.707Z,8.00
2023-03-31T09:38:12.060Z,12.30
2023-03-31T09:40:59.479Z,8.77
2023-03-31T09:43:47.881Z,10.25
2023-03-31T09:46:35.934Z,10.25
2023-03-31T09:49:26.839Z,9.48
2023-03-31T09:52:25.483Z,7.57
2023-03-31T09:55:28.307Z,10.40
2023-03-31T09:58:22.117Z,9.18
2023-03-31T10:01:12.167Z,7.05
2023-03-31T10:03:58.375Z,8.23
2023-03-31T10:06:44.730Z,11.60
2023-03-31T10:09:33.646Z,7.93
2023-03-31T10:12:37.397Z,10.32
2023-03-31T10:15:27.686Z,7.35
2023-03-31T10:18:18.796Z,7.88
2023-03-31T10:21:06.938Z,6.82
2023-03-31T10:23:54.963Z,7.82
2023-03-31T10:26:41.231Z,7.00
2023-03-31T10:29:33.592Z,8.50
2023-03-31T10:32:30.632Z,6.30
2023-03-31T10:35:22.997Z,13.18
2023-03-31T10:38:17.363Z,8.30
2023-03-31T10:41:04.277Z,9.13
2023-03-31T10:43:51.937Z,9.82
2023-03-31T10:46:52.844Z,12.55
2023-03-31T10:49:40.576Z,8.30
2023-03-31T10:52:29.844Z,9.73
2023-03-31T10:55:26.411Z,7.22
2023-03-31T10:58:23.163Z,8.35
2023-03-31T11:01:29.144Z,9.48
2023-03-31T11:04:43.419Z,8.55
2023-03-31T11:07:46.722Z,7.03
2023-03-31T11:10:58.938Z,9.35
2023-03-31T11:14:02.447Z,9.32
2023-03-31T11:17:01.937Z,6.60
2023-03-31T11:20:12.762Z,7.70
2023-03-31T11:22:58.752Z,6.88
2023-03-31T11:26:10.909Z,14.55
2023-03-31T11:29:08.836Z,11.93
2023-03-31T11:32:32.022Z,12.60
2023-03-31T11:35:43.627Z,11.88
2023-03-31T11:38:51.079Z,8.88
2023-03-31T11:41:54.982Z,6.85
2023-03-31T11:44:53.134Z,8.82
2023-03-31T11:47:44.613Z,11.68
2023-03-31T11:50:38.452Z,6.82
2023-03-31T11:53:33.367Z,11.00
2023-03-31T11:56:20.420Z,10.10
2023-03-31T11:59:09.907Z,6.57
2023-03-31T12:02:00.312Z,8.88
2023-03-31T12:04:53.989Z,6.03
2023-03-31T12:07:50.266Z,9.15
2023-03-31T12:10:39.009Z,15.23
2023-03-31T12:13:52.521Z,8.82
2023-03-31T12:16:43.807Z,8.57
2023-03-31T12:19:58.782Z,3.65
2023-03-31T12:22:47.094Z,6.53
2023-03-31T12:26:11.479Z,7.72
2023-03-31T12:29:03.516Z,8.35
2023-03-31T12:31:53.275Z,4.88
2023-03-31T12:34:49.091Z,7.15
2023-03-31T12:37:59.440Z,10.68
2023-03-31T12:41:22.945Z,5.70
2023-03-31T12:44:14.494Z,6.78
2023-03-31T12:47:21.518Z,5.63
2023-03-31T12:50:34.703Z,6.75
2023-03-31T12:53:26.553Z,3.45
2023-03-31T12:56:12.248Z,5.38
2023-03-31T12:59:18.973Z,23.30
2023-03-31T13:02:26.729Z,7.80
2023-03-31T13:05:38.074Z,4.28
2023-03-31T13:08:48.645Z,5.38
2023-03-31T13:11:36.582Z,5.05
2023-03-31T13:14:24.922Z,5.90
2023-03-31T13:17:28.692Z,6.00
2023-03-31T13:24:00.564Z,7.50
2023-03-31T13:26:49.220Z,3.45
2023-03-31T13:29:43.599Z,2.45
2023-03-31T13:32:29.409Z,5.78
2023-03-31T13:35:24.588Z,2.25
2023-03-31T13:38:51.934Z,10.10
2023-03-31T13:42:14.436Z,3.03
2023-03-31T13:48:26.304Z,3.40
2023-03-31T13:51:28.711Z,6.40
2023-03-31T13:54:48.529Z,4.55
2023-03-31T13:57:58.841Z,5.40
2023-03-31T14:00:48.094Z,7.80
2023-03-31T14:04:16.089Z,15.95
2023-03-31T14:07:09.823Z,4.53
2023-03-31T14:09:58.229Z,3.60
2023-03-31T14:12:44.181Z,3.38
2023-03-31T14:15:30.058Z,3.33
2023-03-31T14:18:24.886Z,4.25
2023-03-31T14:21:29.684Z,4.93
2023-03-31T14:24:26.407Z,3.13
2023-03-31T14:27:18.792Z,5.82
2023-03-31T14:33:12.664Z,3.22
2023-03-31T14:36:21.798Z,2.53
2023-03-31T14:39:11.734Z,3.80
2023-03-31T14:42:02.597Z,4.07
2023-03-31T14:44:48.883Z,3.35
2023-03-31T14:47:34.621Z,2.70
2023-03-31T14:50:20.043Z,6.18
2023-03-31T14:53:15.688Z,3.90
2023-03-31T14:56:07.443Z,11.63
2023-03-31T14:58:54.297Z,8.43
2023-03-31T15:01:40.558Z,2.00
2023-03-31T15:04:39.599Z,6.88
2023-03-31T15:07:28.583Z,4.07
2023-03-31T15:10:20.494Z,3.03
2023-03-31T15:13:11.428Z,5.63
2023-03-31T15:15:56.919Z,2.05
2023-03-31T15:18:44.531Z,2.55
2023-03-31T15:21:34.194Z,4.32
2023-03-31T15:24:20.796Z,3.90
2023-03-31T15:27:14.837Z,8.88
2023-03-31T15:30:02.657Z,3.92
2023-03-31T15:32:48.520Z,6.10
2023-03-31T15:35:36.456Z,6.28
2023-03-31T15:38:25.775Z,4.47
2023-03-31T15:41:13.499Z,4.43
2023-03-31T15:44:28.797Z,6.75
2023-03-31T15:47:25.366Z,15.75
2023-03-31T15:50:15.974Z,18.08
2023-03-31T15:53:03.869Z,18.52
2023-03-31T15:55:55.697Z,9.05
2023-03-31T15:58:58.340Z,17.83
2023-03-31T16:01:46.409Z,19.52
2023-03-31T16:04:33.236Z,11.55
2023-03-31T16:07:26.196Z,11.95
2023-03-31T16:10:23.174Z,15.32
2023-03-31T16:13:12.651Z,15.13
2023-03-31T16:15:59.504Z,12.80
2023-03-31T16:18:50.023Z,13.75
2023-03-31T16:21:43.731Z,14.13
2023-03-31T16:24:36.191Z,10.23
2023-03-31T16:30:14.652Z,8.52
2023-03-31T16:33:03.829Z,12.60
2023-03-31T16:35:56.018Z,12.40
2023-03-31T16:41:31.094Z,10.68
2023-03-31T16:44:17.483Z,13.73
2023-03-31T16:47:03.332Z,12.43
2023-03-31T16:49:49.024Z,36.83
2023-03-31T16:52:36.115Z,28.98
2023-03-31T16:55:22.032Z,24.02
2023-03-31T16:58:08.888Z,38.83
2023-03-31T17:00:56.075Z,43.88
2023-03-31T17:03:43.140Z,64.63
2023-03-31T17:06:28.908Z,34.58
2023-03-31T17:09:15.375Z,14.25
2023-03-31T17:12:01.802Z,18.90
2023-03-31T17:14:47.516Z,25.33
2023-03-31T17:17:33.183Z,22.52
2023-03-31T17:20:19.262Z,33.67
2023-03-31T17:23:07.531Z,38.75
2023-03-31T17:25:54.094Z,26.23
2023-03-31T17:28:41.036Z,10.65
2023-03-31T17:31:27.322Z,16.77
2023-03-31T17:34:13.768Z,17.70
2023-03-31T17:37:00.124Z,15.25
2023-03-31T17:39:46.057Z,12.48
2023-03-31T17:42:31.835Z,12.95
2023-03-31T17:45:17.276Z,7.03
2023-03-31T17:48:03.156Z,7.82
2023-03-31T17:50:48.812Z,9.95
2023-03-31T17:53:35.602Z,6.90
2023-03-31T17:56:20.977Z,7.55
2023-03-31T17:59:06.417Z,4.32
2023-03-31T18:01:52.172Z,4.75
2023-03-31T18:04:37.945Z,5.40
2023-03-31T18:07:23.635Z,6.75
2023-03-31T18:10:10.051Z,7.88
2023-03-31T18:12:55.704Z,6.90
2023-03-31T18:15:48.449Z,6.28
2023-03-31T18:18:34.759Z,7.45
2023-03-31T18:21:20.379Z,8.25
2023-03-31T18:24:06.055Z,8.30
2023-03-31T18:26:51.712Z,8.30
2023-03-31T18:29:37.968Z,8.65
2023-03-31T18:32:23.820Z,5.53
2023-03-31T18:35:09.827Z,8.15
2023-03-31T18:37:55.539Z,5.20
2023-03-31T18:40:48.722Z,5.85
2023-03-31T18:43:34.703Z,8.38
2023-03-31T18:46:20.514Z,9.80
2023-03-31T18:49:06.982Z,10.63
2023-03-31T18:51:53.695Z,12.10
2023-03-31T18:54:39.478Z,11.48
2023-03-31T18:57:25.869Z,12.50
2023-03-31T19:00:13.310Z,7.75
2023-03-31T19:02:59.436Z,8.40
2023-03-31T19:05:45.038Z,6.32
2023-03-31T19:08:31.596Z,8.20
2023-03-31T19:11:17.683Z,8.57
2023-03-31T19:14:03.408Z,10.20
2023-03-31T19:16:49.468Z,8.73
2023-03-31T19:19:35.387Z,4.28
2023-03-31T19:22:21.264Z,6.80
2023-03-31T19:25:07.414Z,5.65
2023-03-31T19:27:53.127Z,9.02
2023-03-31T19:30:38.486Z,9.35
2023-03-31T19:33:25.278Z,13.10
2023-03-31T19:36:11.402Z,71.97
2023-03-31T19:38:57.983Z,92.68
2023-03-31T19:41:43.432Z,94.68
2023-03-31T19:44:29.514Z,42.28
2023-03-31T19:47:14.793Z,20.80
2023-03-31T19:50:00.602Z,18.40
2023-03-31T19:52:49.792Z,21.02
2023-03-31T19:55:43.734Z,22.40
2023-03-31T19:58:31.126Z,8.68
2023-03-31T20:01:23.037Z,8.32
2023-03-31T20:04:08.744Z,5.75
2023-03-31T20:06:54.719Z,6.70
2023-03-31T20:09:40.265Z,4.68
2023-03-31T20:12:26.051Z,4.70
2023-03-31T20:15:11.853Z,5.47
2023-03-31T20:17:57.173Z,6.47
2023-03-31T20:20:43.052Z,6.88
2023-03-31T20:23:28.838Z,5.15
2023-03-31T20:26:17.457Z,6.00
2023-03-31T20:29:04.000Z,7.32
2023-03-31T20:31:50.372Z,6.93
2023-03-31T20:34:36.346Z,6.95
2023-03-31T20:37:22.336Z,7.05
2023-03-31T20:40:08.888Z,8.20
2023-03-31T20:42:55.405Z,7.20
2023-03-31T20:45:41.278Z,6.95
2023-03-31T20:48:26.456Z,8.18
2023-03-31T20:51:14.802Z,8.95
2023-03-31T20:54:01.820Z,8.23
2023-03-31T20:56:47.852Z,6.55
2023-03-31T20:59:33.970Z,15.38
2023-03-31T21:02:20.002Z,10.15
2023-03-31T21:05:06.221Z,6.47
2023-03-31T21:07:51.864Z,5.18
2023-03-31T21:10:43.408Z,6.45
2023-03-31T21:13:31.250Z,6.15
2023-03-31T21:16:17.014Z,5.25
2023-03-31T21:19:02.752Z,7.18
2023-03-31T21:21:48.157Z,10.15
2023-03-31T21:24:34.214Z,12.00
2023-03-31T21:27:19.998Z,5.68
2023-03-31T21:30:05.935Z,8.43
2023-03-31T21:32:51.370Z,4.65
2023-03-31T21:35:36.987Z,7.18
2023-03-31T21:38:23.806Z,6.22
2023-03-31T21:41:12.377Z,7.38
2023-03-31T21:44:02.796Z,7.28
2023-03-31T21:46:48.423Z,7.32
2023-03-31T21:49:33.855Z,5.63
2023-03-31T21:52:19.395Z,5.03
2023-03-31T21:55:04.924Z,3.97
2023-03-31T21:57:51.006Z,7.80
2023-03-31T22:00:37.250Z,6.32
2023-03-31T22:03:27.442Z,10.10
2023-03-31T22:06:13.574Z,6.53
2023-03-31T22:08:59.354Z,7.40
2023-03-31T22:11:44.637Z,4.65
2023-03-31T22:14:30.059Z,6.82
2023-03-31T22:17:15.628Z,8.80
2023-03-31T22:20:01.422Z,7.03
2023-03-31T22:22:47.323Z,8.13
2023-03-31T22:25:33.232Z,5.43
2023-03-31T22:28:18.882Z,5.38
2023-03-31T22:31:04.400Z,5.95
2023-03-31T22:33:49.761Z,6.07
2023-03-31T22:36:35.505Z,7.25
2023-03-31T22:39:21.068Z,7.97
2023-03-31T22:42:06.489Z,7.25
2023-03-31T22:44:51.916Z,6.70
2023-03-31T22:47:37.464Z,8.55
2023-03-31T22:50:23.805Z,4.80
2023-03-31T22:53:09.997Z,7.28
2023-03-31T22:55:56.303Z,7.18
2023-03-31T22:58:42.120Z,5.75
2023-03-31T23:01:28.846Z,8.05
2023-03-31T23:04:14.692Z,5.90
2023-03-31T23:07:01.003Z,6.82
2023-03-31T23:09:46.648Z,5.43
2023-03-31T23:12:32.245Z,6.25
2023-03-31T23:15:18.138Z,9.45
2023-03-31T23:18:03.838Z,10.60
2023-03-31T23:20:49.480Z,12.15
2023-03-31T23:23:34.736Z,6.95
2023-03-31T23:26:22.058Z,7.15
2023-03-31T23:29:07.454Z,6.97
2023-03-31T23:31:52.904Z,5.90
2023-03-31T23:34:41.907Z,9.50
2023-03-31T23:37:27.650Z,7.25
2023-03-31T23:40:13.562Z,8.10
2023-03-31T23:42:59.364Z,9.60
2023-03-31T23:45:44.483Z,7.35
2023-03-31T23:48:29.866Z,7.10
2023-03-31T23:51:15.405Z,8.25
2023-03-31T23:54:01.228Z,8.93
2023-03-31T23:56:46.901Z,11.57
2023-03-31T23:59:32.143Z,6.55
